sensor_id;sensor_type;location;lat;lon;timestamp;pressure;altitude;pressure_sealevel;temperature;humidity
68380;BME280;57711;53.196;19.638;2023-04-15T00:01:52;99483.46;;;11.48;57.28
68380;BME280;57711;53.196;19.638;2023-04-15T00:04:19;99478.23;;;11.47;57.19
68380;BME280;57711;53.196;19.638;2023-04-15T00:06:52;99482.88;;;11.45;57.31
68380;BME280;57711;53.196;19.638;2023-04-15T00:09:20;99480.20;;;11.45;57.29
68380;BME280;57711;53.196;19.638;2023-04-15T00:11:49;99480.40;;;11.47;57.20
68380;BME280;57711;53.196;19.638;2023-04-15T00:14:16;99481.59;;;11.47;57.24
68380;BME280;57711;53.196;19.638;2023-04-15T00:16:43;99474.95;;;11.48;57.30
68380;BME280;57711;53.196;19.638;2023-04-15T00:19:10;99477.05;;;11.49;57.18
68380;BME280;57711;53.196;19.638;2023-04-15T00:21:38;99475.96;;;11.49;57.22
68380;BME280;57711;53.196;19.638;2023-04-15T00:24:05;99473.71;;;11.48;57.26
68380;BME280;57711;53.196;19.638;2023-04-15T00:26:32;99471.91;;;11.48;57.24
68380;BME280;57711;53.196;19.638;2023-04-15T00:28:59;99470.46;;;11.48;57.25
68380;BME280;57711;53.196;19.638;2023-04-15T00:31:29;99470.04;;;11.48;57.40
68380;BME280;57711;53.196;19.638;2023-04-15T00:33:57;99467.27;;;11.47;57.33
68380;BME280;57711;53.196;19.638;2023-04-15T00:36:24;99465.66;;;11.45;57.32
68380;BME280;57711;53.196;19.638;2023-04-15T00:38:52;99463.34;;;11.44;57.40
68380;BME280;57711;53.196;19.638;2023-04-15T00:41:20;99464.22;;;11.42;57.28
68380;BME280;57711;53.196;19.638;2023-04-15T00:43:47;99458.20;;;11.41;57.50
68380;BME280;57711;53.196;19.638;2023-04-15T00:46:15;99456.55;;;11.41;57.39
68380;BME280;57711;53.196;19.638;2023-04-15T00:48:43;99458.55;;;11.43;57.35
68380;BME280;57711;53.196;19.638;2023-04-15T00:51:12;99461.11;;;11.44;57.38
68380;BME280;57711;53.196;19.638;2023-04-15T00:53:39;99457.21;;;11.45;57.34
68380;BME280;57711;53.196;19.638;2023-04-15T00:56:07;99455.11;;;11.45;57.29
68380;BME280;57711;53.196;19.638;2023-04-15T00:58:34;99457.79;;;11.43;57.37
68380;BME280;57711;53.196;19.638;2023-04-15T01:01:03;99455.47;;;11.43;57.33
68380;BME280;57711;53.196;19.638;2023-04-15T01:03:30;99457.81;;;11.41;57.45
68380;BME280;57711;53.196;19.638;2023-04-15T01:05:59;99454.87;;;11.38;57.27
68380;BME280;57711;53.196;19.638;2023-04-15T01:08:30;99452.76;;;11.36;57.45
68380;BME280;57711;53.196;19.638;2023-04-15T01:11:00;99454.96;;;11.33;57.64
68380;BME280;57711;53.196;19.638;2023-04-15T01:13:29;99456.58;;;11.32;57.57
68380;BME280;57711;53.196;19.638;2023-04-15T01:15:57;99453.97;;;11.29;57.48
68380;BME280;57711;53.196;19.638;2023-04-15T01:18:24;99452.91;;;11.27;57.63
68380;BME280;57711;53.196;19.638;2023-04-15T01:20:52;99451.14;;;11.25;57.63
68380;BME280;57711;53.196;19.638;2023-04-15T01:23:23;99452.19;;;11.24;57.83
68380;BME280;57711;53.196;19.638;2023-04-15T01:25:50;99452.90;;;11.24;57.67
68380;BME280;57711;53.196;19.638;2023-04-15T01:28:18;99454.84;;;11.24;57.62
68380;BME280;57711;53.196;19.638;2023-04-15T01:30:46;99452.54;;;11.26;57.60
68380;BME280;57711;53.196;19.638;2023-04-15T01:33:13;99457.19;;;11.26;57.67
68380;BME280;57711;53.196;19.638;2023-04-15T01:35:41;99453.21;;;11.26;57.51
68380;BME280;57711;53.196;19.638;2023-04-15T01:38:10;99449.75;;;11.26;57.69
68380;BME280;57711;53.196;19.638;2023-04-15T01:40:38;99451.71;;;11.25;57.65
68380;BME280;57711;53.196;19.638;2023-04-15T01:43:05;99450.30;;;11.23;57.62
68380;BME280;57711;53.196;19.638;2023-04-15T01:45:32;99456.23;;;11.22;57.66
68380;BME280;57711;53.196;19.638;2023-04-15T01:48:03;99449.98;;;11.21;57.76
68380;BME280;57711;53.196;19.638;2023-04-15T01:50:30;99454.83;;;11.18;57.82
68380;BME280;57711;53.196;19.638;2023-04-15T01:52:57;99454.95;;;11.15;57.58
68380;BME280;57711;53.196;19.638;2023-04-15T01:55:24;99452.20;;;11.13;57.93
68380;BME280;57711;53.196;19.638;2023-04-15T01:57:52;99447.23;;;11.11;57.92
68380;BME280;57711;53.196;19.638;2023-04-15T02:00:19;99448.11;;;11.11;57.69
68380;BME280;57711;53.196;19.638;2023-04-15T02:02:48;99448.08;;;11.11;58.00
68380;BME280;57711;53.196;19.638;2023-04-15T02:05:15;99453.41;;;11.12;57.92
68380;BME280;57711;53.196;19.638;2023-04-15T02:07:46;99448.73;;;11.14;57.83
68380;BME280;57711;53.196;19.638;2023-04-15T02:10:14;99449.76;;;11.14;57.87
68380;BME280;57711;53.196;19.638;2023-04-15T02:12:42;99450.23;;;11.15;58.08
68380;BME280;57711;53.196;19.638;2023-04-15T02:15:10;99446.09;;;11.14;57.88
68380;BME280;57711;53.196;19.638;2023-04-15T02:17:37;99445.77;;;11.14;57.90
68380;BME280;57711;53.196;19.638;2023-04-15T02:20:09;99440.41;;;11.12;57.91
68380;BME280;57711;53.196;19.638;2023-04-15T02:22:36;99440.90;;;11.11;57.93
68380;BME280;57711;53.196;19.638;2023-04-15T02:25:04;99444.27;;;11.10;58.03
68380;BME280;57711;53.196;19.638;2023-04-15T02:27:32;99447.75;;;11.08;57.99
68380;BME280;57711;53.196;19.638;2023-04-15T02:29:59;99451.52;;;11.06;57.91
68380;BME280;57711;53.196;19.638;2023-04-15T02:32:26;99451.66;;;11.05;58.13
68380;BME280;57711;53.196;19.638;2023-04-15T02:34:54;99453.13;;;11.05;57.93
68380;BME280;57711;53.196;19.638;2023-04-15T02:37:22;99449.84;;;11.05;58.04
68380;BME280;57711;53.196;19.638;2023-04-15T02:39:50;99448.65;;;11.06;58.05
68380;BME280;57711;53.196;19.638;2023-04-15T02:42:18;99455.22;;;11.07;58.10
68380;BME280;57711;53.196;19.638;2023-04-15T02:44:48;99456.38;;;11.08;58.04
68380;BME280;57711;53.196;19.638;2023-04-15T02:47:16;99455.49;;;11.09;57.96
68380;BME280;57711;53.196;19.638;2023-04-15T02:49:43;99451.89;;;11.09;58.08
68380;BME280;57711;53.196;19.638;2023-04-15T02:52:10;99450.74;;;11.08;58.01
68380;BME280;57711;53.196;19.638;2023-04-15T02:54:37;99449.08;;;11.09;58.26
68380;BME280;57711;53.196;19.638;2023-04-15T02:57:04;99449.90;;;11.09;58.03
68380;BME280;57711;53.196;19.638;2023-04-15T02:59:33;99449.18;;;11.09;58.16
68380;BME280;57711;53.196;19.638;2023-04-15T03:05:06;99444.41;;;11.10;58.16
68380;BME280;57711;53.196;19.638;2023-04-15T03:07:33;99449.40;;;11.11;58.20
68380;BME280;57711;53.196;19.638;2023-04-15T03:10:01;99449.10;;;11.12;58.18
68380;BME280;57711;53.196;19.638;2023-04-15T03:12:28;99446.26;;;11.13;58.34
68380;BME280;57711;53.196;19.638;2023-04-15T03:14:56;99449.39;;;11.14;58.14
68380;BME280;57711;53.196;19.638;2023-04-15T03:17:31;99449.70;;;11.15;58.22
68380;BME280;57711;53.196;19.638;2023-04-15T03:19:58;99450.31;;;11.16;58.24
68380;BME280;57711;53.196;19.638;2023-04-15T03:22:26;99448.35;;;11.18;58.28
68380;BME280;57711;53.196;19.638;2023-04-15T03:24:53;99447.45;;;11.17;58.30
68380;BME280;57711;53.196;19.638;2023-04-15T03:27:20;99451.16;;;11.16;58.25
68380;BME280;57711;53.196;19.638;2023-04-15T03:29:48;99451.42;;;11.14;58.15
68380;BME280;57711;53.196;19.638;2023-04-15T03:32:16;99451.98;;;11.14;58.20
68380;BME280;57711;53.196;19.638;2023-04-15T03:34:44;99451.71;;;11.13;58.38
68380;BME280;57711;53.196;19.638;2023-04-15T03:37:11;99455.81;;;11.13;58.48
68380;BME280;57711;53.196;19.638;2023-04-15T03:39:38;99456.88;;;11.15;58.39
68380;BME280;57711;53.196;19.638;2023-04-15T03:42:05;99455.60;;;11.19;58.45
68380;BME280;57711;53.196;19.638;2023-04-15T03:44:32;99456.98;;;11.22;58.45
68380;BME280;57711;53.196;19.638;2023-04-15T03:46:59;99453.33;;;11.23;58.35
68380;BME280;57711;53.196;19.638;2023-04-15T03:49:27;99456.84;;;11.24;58.43
68380;BME280;57711;53.196;19.638;2023-04-15T03:51:54;99460.23;;;11.25;58.38
68380;BME280;57711;53.196;19.638;2023-04-15T03:54:21;99460.13;;;11.24;58.43
68380;BME280;57711;53.196;19.638;2023-04-15T03:56:48;99463.50;;;11.25;58.53
68380;BME280;57711;53.196;19.638;2023-04-15T03:59:15;99460.93;;;11.23;58.57
68380;BME280;57711;53.196;19.638;2023-04-15T04:01:43;99461.55;;;11.23;58.34
68380;BME280;57711;53.196;19.638;2023-04-15T04:04:10;99466.62;;;11.21;58.61
68380;BME280;57711;53.196;19.638;2023-04-15T04:06:37;99464.53;;;11.19;58.57
68380;BME280;57711;53.196;19.638;2023-04-15T04:09:05;99464.20;;;11.17;58.73
68380;BME280;57711;53.196;19.638;2023-04-15T04:11:32;99460.86;;;11.15;58.65
68380;BME280;57711;53.196;19.638;2023-04-15T04:13:59;99465.07;;;11.17;58.65
68380;BME280;57711;53.196;19.638;2023-04-15T04:16:26;99467.17;;;11.17;58.86
68380;BME280;57711;53.196;19.638;2023-04-15T04:18:54;99469.62;;;11.18;58.63
68380;BME280;57711;53.196;19.638;2023-04-15T04:21:21;99469.30;;;11.16;58.53
68380;BME280;57711;53.196;19.638;2023-04-15T04:23:48;99468.38;;;11.14;58.82
68380;BME280;57711;53.196;19.638;2023-04-15T04:26:15;99472.52;;;11.12;58.90
68380;BME280;57711;53.196;19.638;2023-04-15T04:28:42;99476.64;;;11.13;58.71
68380;BME280;57711;53.196;19.638;2023-04-15T04:31:09;99477.96;;;11.12;58.87
68380;BME280;57711;53.196;19.638;2023-04-15T04:33:37;99478.76;;;11.09;58.94
68380;BME280;57711;53.196;19.638;2023-04-15T04:36:04;99481.95;;;11.08;59.00
68380;BME280;57711;53.196;19.638;2023-04-15T04:38:32;99482.44;;;11.06;58.98
68380;BME280;57711;53.196;19.638;2023-04-15T04:40:59;99482.59;;;11.07;59.04
68380;BME280;57711;53.196;19.638;2023-04-15T04:43:26;99482.30;;;11.06;58.93
68380;BME280;57711;53.196;19.638;2023-04-15T04:45:53;99483.59;;;11.05;59.12
68380;BME280;57711;53.196;19.638;2023-04-15T04:48:21;99487.11;;;11.05;59.05
68380;BME280;57711;53.196;19.638;2023-04-15T04:50:48;99491.63;;;11.05;59.34
68380;BME280;57711;53.196;19.638;2023-04-15T04:53:16;99491.48;;;11.03;59.27
68380;BME280;57711;53.196;19.638;2023-04-15T04:55:43;99492.25;;;11.02;59.33
68380;BME280;57711;53.196;19.638;2023-04-15T04:58:10;99494.48;;;11.00;59.47
68380;BME280;57711;53.196;19.638;2023-04-15T05:00:39;99497.66;;;10.99;59.36
68380;BME280;57711;53.196;19.638;2023-04-15T05:03:06;99497.30;;;10.97;59.48
68380;BME280;57711;53.196;19.638;2023-04-15T05:05:34;99497.30;;;10.95;59.50
68380;BME280;57711;53.196;19.638;2023-04-15T05:08:02;99500.27;;;10.94;59.48
68380;BME280;57711;53.196;19.638;2023-04-15T05:10:30;99502.64;;;10.94;59.64
68380;BME280;57711;53.196;19.638;2023-04-15T05:12:57;99503.06;;;10.96;59.48
68380;BME280;57711;53.196;19.638;2023-04-15T05:15:24;99509.73;;;10.95;59.70
68380;BME280;57711;53.196;19.638;2023-04-15T05:17:51;99505.48;;;10.97;59.69
68380;BME280;57711;53.196;19.638;2023-04-15T05:20:18;99507.89;;;10.98;59.69
68380;BME280;57711;53.196;19.638;2023-04-15T05:22:46;99509.21;;;10.98;59.62
68380;BME280;57711;53.196;19.638;2023-04-15T05:25:13;99507.02;;;10.98;59.91
68380;BME280;57711;53.196;19.638;2023-04-15T05:27:40;99509.39;;;10.98;59.74
68380;BME280;57711;53.196;19.638;2023-04-15T05:30:08;99507.47;;;10.97;59.94
68380;BME280;57711;53.196;19.638;2023-04-15T05:32:37;99512.02;;;10.97;59.80
68380;BME280;57711;53.196;19.638;2023-04-15T05:35:05;99514.13;;;10.97;59.95
68380;BME280;57711;53.196;19.638;2023-04-15T05:37:33;99511.45;;;10.99;60.04
68380;BME280;57711;53.196;19.638;2023-04-15T05:40:01;99517.53;;;10.99;59.98
68380;BME280;57711;53.196;19.638;2023-04-15T05:42:28;99519.59;;;10.99;60.01
68380;BME280;57711;53.196;19.638;2023-04-15T05:44:55;99518.86;;;10.97;59.89
68380;BME280;57711;53.196;19.638;2023-04-15T05:47:22;99519.59;;;10.95;60.16
68380;BME280;57711;53.196;19.638;2023-04-15T05:49:49;99517.70;;;10.95;60.06
68380;BME280;57711;53.196;19.638;2023-04-15T05:52:17;99517.52;;;10.95;60.38
68380;BME280;57711;53.196;19.638;2023-04-15T05:54:44;99517.84;;;10.94;60.41
68380;BME280;57711;53.196;19.638;2023-04-15T05:57:11;99517.96;;;10.93;60.30
68380;BME280;57711;53.196;19.638;2023-04-15T05:59:38;99518.44;;;10.94;60.06
68380;BME280;57711;53.196;19.638;2023-04-15T06:02:05;99521.90;;;10.93;60.33
68380;BME280;57711;53.196;19.638;2023-04-15T06:04:33;99521.59;;;10.94;60.24
68380;BME280;57711;53.196;19.638;2023-04-15T06:07:00;99522.02;;;10.96;60.35
68380;BME280;57711;53.196;19.638;2023-04-15T06:09:27;99521.83;;;10.98;60.34
68380;BME280;57711;53.196;19.638;2023-04-15T06:11:55;99523.43;;;11.00;60.30
68380;BME280;57711;53.196;19.638;2023-04-15T06:14:23;99523.79;;;11.00;60.30
68380;BME280;57711;53.196;19.638;2023-04-15T06:16:50;99526.08;;;10.99;60.49
68380;BME280;57711;53.196;19.638;2023-04-15T06:19:18;99522.15;;;10.96;60.48
68380;BME280;57711;53.196;19.638;2023-04-15T06:21:45;99523.05;;;10.94;60.58
68380;BME280;57711;53.196;19.638;2023-04-15T06:24:12;99527.48;;;10.93;60.72
68380;BME280;57711;53.196;19.638;2023-04-15T06:26:39;99529.33;;;10.93;60.55
68380;BME280;57711;53.196;19.638;2023-04-15T06:29:06;99529.27;;;10.94;60.72
68380;BME280;57711;53.196;19.638;2023-04-15T06:31:33;99529.98;;;10.94;60.64
68380;BME280;57711;53.196;19.638;2023-04-15T06:34:00;99528.30;;;10.93;60.45
68380;BME280;57711;53.196;19.638;2023-04-15T06:36:28;99529.39;;;10.93;60.79
68380;BME280;57711;53.196;19.638;2023-04-15T06:38:55;99531.31;;;10.93;60.69
68380;BME280;57711;53.196;19.638;2023-04-15T06:41:23;99535.03;;;10.94;60.80
68380;BME280;57711;53.196;19.638;2023-04-15T06:43:50;99532.05;;;10.95;60.63
68380;BME280;57711;53.196;19.638;2023-04-15T06:46:17;99537.95;;;10.95;60.84
68380;BME280;57711;53.196;19.638;2023-04-15T06:48:44;99540.46;;;10.96;60.91
68380;BME280;57711;53.196;19.638;2023-04-15T06:51:12;99542.90;;;10.95;60.84
68380;BME280;57711;53.196;19.638;2023-04-15T06:53:39;99544.73;;;10.93;60.94
68380;BME280;57711;53.196;19.638;2023-04-15T06:56:08;99547.59;;;10.91;60.81
68380;BME280;57711;53.196;19.638;2023-04-15T06:58:35;99551.15;;;10.90;60.91
68380;BME280;57711;53.196;19.638;2023-04-15T07:01:02;99552.48;;;10.92;60.93
68380;BME280;57711;53.196;19.638;2023-04-15T07:03:30;99554.48;;;10.93;61.10
68380;BME280;57711;53.196;19.638;2023-04-15T07:05:58;99555.71;;;10.94;61.04
68380;BME280;57711;53.196;19.638;2023-04-15T07:08:27;99557.55;;;10.93;60.98
68380;BME280;57711;53.196;19.638;2023-04-15T07:10:54;99559.69;;;10.94;61.03
68380;BME280;57711;53.196;19.638;2023-04-15T07:13:21;99556.78;;;10.92;60.97
68380;BME280;57711;53.196;19.638;2023-04-15T07:15:48;99562.64;;;10.89;60.92
68380;BME280;57711;53.196;19.638;2023-04-15T07:18:15;99567.69;;;10.90;61.11
68380;BME280;57711;53.196;19.638;2023-04-15T07:20:42;99568.26;;;10.89;61.13
68380;BME280;57711;53.196;19.638;2023-04-15T07:23:09;99564.71;;;10.90;61.24
68380;BME280;57711;53.196;19.638;2023-04-15T07:25:37;99565.80;;;10.92;61.15
68380;BME280;57711;53.196;19.638;2023-04-15T07:28:04;99563.88;;;10.93;61.08
68380;BME280;57711;53.196;19.638;2023-04-15T07:30:31;99563.63;;;10.96;61.21
68380;BME280;57711;53.196;19.638;2023-04-15T07:32:59;99567.82;;;10.99;61.25
68380;BME280;57711;53.196;19.638;2023-04-15T07:35:26;99566.54;;;11.03;61.31
68380;BME280;57711;53.196;19.638;2023-04-15T07:37:53;99564.08;;;11.06;61.27
68380;BME280;57711;53.196;19.638;2023-04-15T07:40:20;99567.88;;;11.06;61.25
68380;BME280;57711;53.196;19.638;2023-04-15T07:42:48;99570.22;;;11.06;61.36
68380;BME280;57711;53.196;19.638;2023-04-15T07:45:15;99565.10;;;11.06;61.31
68380;BME280;57711;53.196;19.638;2023-04-15T07:47:43;99570.73;;;11.08;61.40
68380;BME280;57711;53.196;19.638;2023-04-15T07:50:10;99569.13;;;11.09;61.32
68380;BME280;57711;53.196;19.638;2023-04-15T07:52:37;99572.61;;;11.11;61.49
68380;BME280;57711;53.196;19.638;2023-04-15T07:55:08;99572.78;;;11.12;61.59
68380;BME280;57711;53.196;19.638;2023-04-15T07:57:36;99573.02;;;11.16;61.38
68380;BME280;57711;53.196;19.638;2023-04-15T08:00:03;99573.24;;;11.19;61.54
68380;BME280;57711;53.196;19.638;2023-04-15T08:02:38;99575.46;;;11.20;61.51
68380;BME280;57711;53.196;19.638;2023-04-15T08:05:06;99573.66;;;11.22;61.63
68380;BME280;57711;53.196;19.638;2023-04-15T08:07:35;99574.55;;;11.23;61.65
68380;BME280;57711;53.196;19.638;2023-04-15T08:10:04;99574.14;;;11.24;61.61
68380;BME280;57711;53.196;19.638;2023-04-15T08:12:31;99575.27;;;11.27;61.68
68380;BME280;57711;53.196;19.638;2023-04-15T08:14:58;99576.55;;;11.30;62.00
68380;BME280;57711;53.196;19.638;2023-04-15T08:17:26;99573.20;;;11.35;61.62
68380;BME280;57711;53.196;19.638;2023-04-15T08:19:54;99569.02;;;11.40;61.59
68380;BME280;57711;53.196;19.638;2023-04-15T08:22:21;99576.60;;;11.46;61.72
68380;BME280;57711;53.196;19.638;2023-04-15T08:24:48;99571.29;;;11.50;61.86
68380;BME280;57711;53.196;19.638;2023-04-15T08:27:15;99571.15;;;11.56;61.98
68380;BME280;57711;53.196;19.638;2023-04-15T08:29:43;99575.94;;;11.61;61.95
68380;BME280;57711;53.196;19.638;2023-04-15T08:32:11;99575.64;;;11.64;61.77
68380;BME280;57711;53.196;19.638;2023-04-15T08:34:38;99575.72;;;11.65;61.95
68380;BME280;57711;53.196;19.638;2023-04-15T08:37:05;99577.87;;;11.68;61.99
68380;BME280;57711;53.196;19.638;2023-04-15T08:39:33;99576.14;;;11.73;62.07
68380;BME280;57711;53.196;19.638;2023-04-15T08:42:01;99576.98;;;11.77;62.08
68380;BME280;57711;53.196;19.638;2023-04-15T08:44:32;99577.65;;;11.83;62.27
68380;BME280;57711;53.196;19.638;2023-04-15T08:47:00;99578.05;;;11.87;61.85
68380;BME280;57711;53.196;19.638;2023-04-15T08:49:29;99577.86;;;11.91;62.14
68380;BME280;57711;53.196;19.638;2023-04-15T08:51:59;99584.29;;;11.92;62.00
68380;BME280;57711;53.196;19.638;2023-04-15T08:54:27;99580.70;;;11.92;62.05
68380;BME280;57711;53.196;19.638;2023-04-15T08:56:56;99583.00;;;11.90;62.00
68380;BME280;57711;53.196;19.638;2023-04-15T08:59:23;99580.11;;;11.88;62.08
68380;BME280;57711;53.196;19.638;2023-04-15T09:01:51;99580.75;;;11.84;61.98
68380;BME280;57711;53.196;19.638;2023-04-15T09:04:19;99583.65;;;11.81;61.98
68380;BME280;57711;53.196;19.638;2023-04-15T09:06:46;99587.16;;;11.78;61.87
68380;BME280;57711;53.196;19.638;2023-04-15T09:09:14;99584.77;;;11.74;61.97
68380;BME280;57711;53.196;19.638;2023-04-15T09:11:41;99587.09;;;11.70;61.82
68380;BME280;57711;53.196;19.638;2023-04-15T09:14:08;99585.24;;;11.67;61.87
68380;BME280;57711;53.196;19.638;2023-04-15T09:16:57;99588.83;;;11.64;61.92
68380;BME280;57711;53.196;19.638;2023-04-15T09:19:25;99591.80;;;11.61;62.16
68380;BME280;57711;53.196;19.638;2023-04-15T09:21:54;99584.82;;;11.59;62.03
68380;BME280;57711;53.196;19.638;2023-04-15T09:24:33;99585.10;;;11.57;62.21
68380;BME280;57711;53.196;19.638;2023-04-15T09:27:01;99590.39;;;11.54;61.93
68380;BME280;57711;53.196;19.638;2023-04-15T09:29:29;99588.95;;;11.52;62.09
68380;BME280;57711;53.196;19.638;2023-04-15T09:32:08;99585.24;;;11.51;62.17
68380;BME280;57711;53.196;19.638;2023-04-15T09:34:36;99582.42;;;11.52;62.28
68380;BME280;57711;53.196;19.638;2023-04-15T09:37:04;99585.36;;;11.54;62.05
68380;BME280;57711;53.196;19.638;2023-04-15T09:42:13;99587.75;;;11.55;62.09
68380;BME280;57711;53.196;19.638;2023-04-15T09:44:40;99586.26;;;11.56;62.40
68380;BME280;57711;53.196;19.638;2023-04-15T09:47:07;99591.28;;;11.56;62.29
68380;BME280;57711;53.196;19.638;2023-04-15T09:49:34;99587.56;;;11.57;62.27
68380;BME280;57711;53.196;19.638;2023-04-15T09:52:02;99592.80;;;11.56;62.25
68380;BME280;57711;53.196;19.638;2023-04-15T09:54:36;99596.70;;;11.55;62.16
68380;BME280;57711;53.196;19.638;2023-04-15T09:57:07;99601.40;;;11.55;62.30
68380;BME280;57711;53.196;19.638;2023-04-15T09:59:36;99600.09;;;11.53;62.17
68380;BME280;57711;53.196;19.638;2023-04-15T10:02:04;99598.20;;;11.50;62.28
68380;BME280;57711;53.196;19.638;2023-04-15T10:04:35;99599.27;;;11.47;62.22
68380;BME280;57711;53.196;19.638;2023-04-15T10:07:04;99598.29;;;11.44;62.47
68380;BME280;57711;53.196;19.638;2023-04-15T10:09:32;99597.92;;;11.43;62.41
68380;BME280;57711;53.196;19.638;2023-04-15T10:12:04;99599.89;;;11.41;62.28
68380;BME280;57711;53.196;19.638;2023-04-15T10:14:34;99602.05;;;11.41;62.32
68380;BME280;57711;53.196;19.638;2023-04-15T10:17:05;99599.45;;;11.39;62.40
68380;BME280;57711;53.196;19.638;2023-04-15T10:19:36;99601.04;;;11.37;62.33
68380;BME280;57711;53.196;19.638;2023-04-15T10:22:03;99602.67;;;11.39;62.31
68380;BME280;57711;53.196;19.638;2023-04-15T10:24:32;99601.30;;;11.40;62.42
68380;BME280;57711;53.196;19.638;2023-04-15T10:26:59;99600.64;;;11.41;62.39
68380;BME280;57711;53.196;19.638;2023-04-15T10:29:29;99600.88;;;11.42;62.46
68380;BME280;57711;53.196;19.638;2023-04-15T10:32:00;99598.77;;;11.43;62.40
68380;BME280;57711;53.196;19.638;2023-04-15T10:34:29;99596.91;;;11.44;62.66
68380;BME280;57711;53.196;19.638;2023-04-15T10:37:00;99598.10;;;11.43;62.54
68380;BME280;57711;53.196;19.638;2023-04-15T10:44:38;99597.63;;;11.40;62.65
68380;BME280;57711;53.196;19.638;2023-04-15T10:47:14;99598.14;;;11.41;62.68
68380;BME280;57711;53.196;19.638;2023-04-15T10:49:51;99597.54;;;11.43;62.73
68380;BME280;57711;53.196;19.638;2023-04-15T10:52:23;99596.55;;;11.45;62.76
68380;BME280;57711;53.196;19.638;2023-04-15T10:57:38;99600.76;;;11.50;62.72
68380;BME280;57711;53.196;19.638;2023-04-15T11:00:16;99599.94;;;11.51;62.87
68380;BME280;57711;53.196;19.638;2023-04-15T11:02:47;99601.65;;;11.51;62.83
68380;BME280;57711;53.196;19.638;2023-04-15T11:05:19;99599.77;;;11.49;62.73
68380;BME280;57711;53.196;19.638;2023-04-15T11:07:49;99607.34;;;11.48;62.80
68380;BME280;57711;53.196;19.638;2023-04-15T11:12:44;99608.11;;;11.46;62.70
68380;BME280;57711;53.196;19.638;2023-04-15T11:17:51;99605.08;;;11.47;62.93
68380;BME280;57711;53.196;19.638;2023-04-15T11:20:18;99605.87;;;11.48;63.00
68380;BME280;57711;53.196;19.638;2023-04-15T11:22:53;99605.02;;;11.49;62.94
68380;BME280;57711;53.196;19.638;2023-04-15T11:25:40;99608.59;;;11.50;62.97
68380;BME280;57711;53.196;19.638;2023-04-15T11:28:10;99607.22;;;11.49;63.01
68380;BME280;57711;53.196;19.638;2023-04-15T11:30:38;99613.60;;;11.49;63.01
68380;BME280;57711;53.196;19.638;2023-04-15T11:33:07;99611.70;;;11.46;62.92
68380;BME280;57711;53.196;19.638;2023-04-15T11:35:35;99615.25;;;11.42;63.23
68380;BME280;57711;53.196;19.638;2023-04-15T11:38:03;99617.23;;;11.38;63.08
68380;BME280;57711;53.196;19.638;2023-04-15T11:40:31;99614.25;;;11.38;63.14
68380;BME280;57711;53.196;19.638;2023-04-15T11:48:21;99621.48;;;11.39;63.14
68380;BME280;57711;53.196;19.638;2023-04-15T11:50:53;99619.41;;;11.38;63.24
68380;BME280;57711;53.196;19.638;2023-04-15T11:53:21;99619.33;;;11.37;63.17
68380;BME280;57711;53.196;19.638;2023-04-15T11:55:51;99622.45;;;11.37;63.30
68380;BME280;57711;53.196;19.638;2023-04-15T11:58:20;99621.64;;;11.34;63.08
68380;BME280;57711;53.196;19.638;2023-04-15T12:00:54;99618.64;;;11.31;63.30
68380;BME280;57711;53.196;19.638;2023-04-15T12:03:26;99625.30;;;11.28;63.31
68380;BME280;57711;53.196;19.638;2023-04-15T12:08:52;99628.45;;;11.27;63.36
68380;BME280;57711;53.196;19.638;2023-04-15T12:13:56;99630.14;;;11.28;63.45
68380;BME280;57711;53.196;19.638;2023-04-15T12:16:24;99628.19;;;11.30;63.35
68380;BME280;57711;53.196;19.638;2023-04-15T12:18:52;99628.80;;;11.33;63.40
68380;BME280;57711;53.196;19.638;2023-04-15T12:21:22;99631.57;;;11.36;63.71
68380;BME280;57711;53.196;19.638;2023-04-15T12:23:56;99634.09;;;11.38;63.45
68380;BME280;57711;53.196;19.638;2023-04-15T12:26:44;99633.11;;;11.39;63.45
68380;BME280;57711;53.196;19.638;2023-04-15T12:29:13;99631.24;;;11.38;63.69
68380;BME280;57711;53.196;19.638;2023-04-15T12:31:53;99635.09;;;11.39;63.42
68380;BME280;57711;53.196;19.638;2023-04-15T12:34:29;99632.84;;;11.39;63.69
68380;BME280;57711;53.196;19.638;2023-04-15T12:36:58;99634.95;;;11.40;63.55
68380;BME280;57711;53.196;19.638;2023-04-15T12:39:27;99638.83;;;11.41;63.64
68380;BME280;57711;53.196;19.638;2023-04-15T12:41:57;99640.00;;;11.42;63.66
68380;BME280;57711;53.196;19.638;2023-04-15T12:44:25;99640.57;;;11.42;63.55
68380;BME280;57711;53.196;19.638;2023-04-15T12:46:53;99639.83;;;11.42;63.61
68380;BME280;57711;53.196;19.638;2023-04-15T12:49:21;99638.06;;;11.42;63.74
68380;BME280;57711;53.196;19.638;2023-04-15T12:51:50;99642.40;;;11.41;63.67
68380;BME280;57711;53.196;19.638;2023-04-15T12:54:18;99641.89;;;11.41;63.90
68380;BME280;57711;53.196;19.638;2023-04-15T12:56:46;99642.71;;;11.40;63.63
68380;BME280;57711;53.196;19.638;2023-04-15T12:59:15;99645.52;;;11.41;63.75
68380;BME280;57711;53.196;19.638;2023-04-15T13:01:44;99640.79;;;11.43;63.87
68380;BME280;57711;53.196;19.638;2023-04-15T13:04:12;99644.01;;;11.47;63.84
68380;BME280;57711;53.196;19.638;2023-04-15T13:06:39;99646.30;;;11.51;63.94
68380;BME280;57711;53.196;19.638;2023-04-15T13:09:07;99645.60;;;11.56;63.70
68380;BME280;57711;53.196;19.638;2023-04-15T13:11:34;99645.53;;;11.60;63.90
68380;BME280;57711;53.196;19.638;2023-04-15T13:14:04;99654.09;;;11.61;63.94
68380;BME280;57711;53.196;19.638;2023-04-15T13:16:32;99650.37;;;11.62;64.04
68380;BME280;57711;53.196;19.638;2023-04-15T13:19:01;99651.15;;;11.62;63.80
68380;BME280;57711;53.196;19.638;2023-04-15T13:21:28;99654.23;;;11.60;64.11
68380;BME280;57711;53.196;19.638;2023-04-15T13:23:57;99656.86;;;11.59;63.88
68380;BME280;57711;53.196;19.638;2023-04-15T13:26:24;99658.56;;;11.59;63.83